createdAt,value
2023-03-07T00:01:10.677Z,98441.86
2023-03-07T00:03:51.084Z,98443.05
2023-03-07T00:06:33.888Z,98443.38
2023-03-07T00:09:23.192Z,98441.93
2023-03-07T00:12:04.431Z,98440.34
2023-03-07T00:14:58.046Z,98443.52
2023-03-07T00:17:36.455Z,98443.66
2023-03-07T00:20:19.398Z,98440.89
2023-03-07T00:23:01.868Z,98440.79
2023-03-07T00:26:02.201Z,98440.46
2023-03-07T00:28:55.809Z,98436.79
2023-03-07T00:31:45.545Z,98439.75
2023-03-07T00:34:31.521Z,98433.17
2023-03-07T00:37:20.404Z,98433.45
2023-03-07T00:39:57.683Z,98432.19
2023-03-07T00:42:41.568Z,98430.11
2023-03-07T00:45:26.614Z,98425.48
2023-03-07T00:48:19.875Z,98423.69
2023-03-07T00:51:15.810Z,98424.48
2023-03-07T00:53:59.086Z,98429.06
2023-03-07T00:56:41.928Z,98424.44
2023-03-07T00:59:19.751Z,98421.61
2023-03-07T01:01:52.416Z,98417.73
2023-03-07T01:04:29.822Z,98418.39
2023-03-07T01:07:22.185Z,98419.61
2023-03-07T01:10:08.347Z,98416.94
2023-03-07T01:12:52.153Z,98414.92
2023-03-07T01:15:44.577Z,98412.11
2023-03-07T01:18:27.561Z,98408.16
2023-03-07T01:21:02.167Z,98407.81
2023-03-07T01:23:37.264Z,98407.66
2023-03-07T01:26:31.299Z,98406.37
2023-03-07T01:29:23.676Z,98407.17
2023-03-07T01:32:01.937Z,98403.91
2023-03-07T01:34:44.365Z,98398.69
2023-03-07T01:37:36.660Z,98401.54
2023-03-07T01:40:29.010Z,98395.07
2023-03-07T01:43:30.304Z,98395.55
2023-03-07T01:46:44.007Z,98392.43
2023-03-07T01:49:39.714Z,98388.17
2023-03-07T01:52:35.993Z,98384.04
2023-03-07T01:55:32.356Z,98381.39
2023-03-07T01:58:22.328Z,98380.70
2023-03-07T02:01:16.083Z,98376.64
2023-03-07T02:04:08.429Z,98374.67
2023-03-07T02:06:54.432Z,98376.83
2023-03-07T02:09:40.008Z,98373.97
2023-03-07T02:12:32.513Z,98373.02
2023-03-07T02:15:18.546Z,98371.88
2023-03-07T02:18:01.660Z,98371.73
2023-03-07T02:20:53.180Z,98370.91
2023-03-07T02:23:53.521Z,98372.19
2023-03-07T02:26:50.457Z,98372.96
2023-03-07T02:29:32.711Z,98368.05
2023-03-07T02:32:20.335Z,98366.42
2023-03-07T02:35:19.510Z,98368.84
2023-03-07T02:38:06.199Z,98370.90
2023-03-07T02:40:59.767Z,98373.09
2023-03-07T02:43:52.248Z,98370.17
2023-03-07T02:46:38.173Z,98371.31
2023-03-07T02:49:30.936Z,98370.55
2023-03-07T02:52:12.214Z,98368.39
2023-03-07T02:55:04.724Z,98364.92
2023-03-07T02:57:55.512Z,98366.15
2023-03-07T03:00:47.886Z,98362.05
2023-03-07T03:03:23.532Z,98363.08
2023-03-07T03:06:10.279Z,98361.31
2023-03-07T03:08:54.074Z,98361.16
2023-03-07T03:11:46.553Z,98358.34
2023-03-07T03:14:38.770Z,98355.80
2023-03-07T03:17:21.076Z,98354.27
2023-03-07T03:20:11.755Z,98348.09
2023-03-07T03:22:46.180Z,98346.91
2023-03-07T03:25:40.225Z,98343.56
2023-03-07T03:28:32.684Z,98345.66
2023-03-07T03:31:25.042Z,98345.81
2023-03-07T03:34:06.528Z,98346.89
2023-03-07T03:36:59.267Z,98349.58
2023-03-07T03:39:37.767Z,98343.98
2023-03-07T03:42:30.292Z,98345.74
2023-03-07T03:45:10.139Z,98350.33
2023-03-07T03:47:55.115Z,98348.84
2023-03-07T03:50:42.723Z,98350.78
2023-03-07T03:53:37.369Z,98349.79
2023-03-07T03:56:23.404Z,98348.16
2023-03-07T03:59:15.920Z,98347.42
2023-03-07T04:01:56.817Z,98344.33
2023-03-07T04:04:39.870Z,98343.89
2023-03-07T04:07:19.474Z,98346.75
2023-03-07T04:10:13.288Z,98342.70
2023-03-07T04:12:56.654Z,98340.81
2023-03-07T04:15:49.074Z,98337.35
2023-03-07T04:18:29.829Z,98333.98
2023-03-07T04:21:22.748Z,98333.27
2023-03-07T04:24:15.004Z,98332.72
2023-03-07T04:27:07.716Z,98336.90
2023-03-07T04:29:50.722Z,98332.73
2023-03-07T04:32:39.483Z,98330.57
2023-03-07T04:35:32.547Z,98330.14
2023-03-07T04:38:24.877Z,98333.16
2023-03-07T04:41:12.296Z,98335.46
2023-03-07T04:44:04.735Z,98328.65
2023-03-07T04:46:57.089Z,98326.42
2023-03-07T04:49:49.237Z,98321.09
2023-03-07T04:52:40.173Z,98317.48
2023-03-07T04:55:32.479Z,98318.06
2023-03-07T04:58:24.972Z,98322.95
2023-03-07T05:01:17.208Z,98319.98
2023-03-07T05:04:08.137Z,98314.30
2023-03-07T05:07:00.782Z,98310.34
2023-03-07T05:09:51.492Z,98310.98
2023-03-07T05:12:32.698Z,98307.88
2023-03-07T05:15:25.187Z,98302.36
2023-03-07T05:18:16.053Z,98301.33
2023-03-07T05:21:08.636Z,98298.21
2023-03-07T05:23:59.380Z,98298.63
2023-03-07T05:26:42.836Z,98296.02
2023-03-07T05:29:35.367Z,98291.96
2023-03-07T05:32:27.882Z,98291.20
2023-03-07T05:35:18.931Z,98293.18
2023-03-07T05:38:11.482Z,98290.64
2023-03-07T05:41:04.006Z,98287.08
2023-03-07T05:43:56.410Z,98282.59
2023-03-07T05:46:48.922Z,98279.09
2023-03-07T05:49:41.212Z,98275.58
2023-03-07T05:52:33.458Z,98279.23
2023-03-07T05:55:25.845Z,98276.57
2023-03-07T05:58:03.847Z,98279.01
2023-03-07T06:00:56.310Z,98274.14
2023-03-07T06:03:47.803Z,98281.48
2023-03-07T06:06:39.025Z,98279.02
2023-03-07T06:09:23.648Z,98279.83
2023-03-07T06:12:19.034Z,98277.44
2023-03-07T06:15:13.588Z,98273.47
2023-03-07T06:17:59.518Z,98270.35
2023-03-07T06:20:39.433Z,98268.08
2023-03-07T06:23:34.169Z,98270.34
2023-03-07T06:26:26.809Z,98266.98
2023-03-07T06:29:10.399Z,98267.39
2023-03-07T06:32:03.058Z,98262.02
2023-03-07T06:34:54.474Z,98256.15
2023-03-07T06:37:30.879Z,98254.98
2023-03-07T06:40:23.448Z,98256.14
2023-03-07T06:42:58.899Z,98255.11
2023-03-07T06:45:51.277Z,98251.48
2023-03-07T06:48:42.135Z,98259.23
2023-03-07T06:51:29.536Z,98252.52
2023-03-07T06:54:07.871Z,98252.02
2023-03-07T06:57:00.447Z,98250.48
2023-03-07T06:59:51.246Z,98254.06
2023-03-07T07:02:36.754Z,98248.61
2023-03-07T07:05:28.882Z,98244.31
2023-03-07T07:08:19.599Z,98244.38
2023-03-07T07:11:11.285Z,98247.39
2023-03-07T07:13:52.012Z,98243.05
2023-03-07T07:16:29.244Z,98240.74
2023-03-07T07:19:22.115Z,98235.05
2023-03-07T07:22:12.048Z,98232.92
2023-03-07T07:24:44.808Z,98234.77
2023-03-07T07:27:20.931Z,98231.88
2023-03-07T07:29:58.425Z,98233.40
2023-03-07T07:32:45.018Z,98234.19
2023-03-07T07:35:40.245Z,98226.09
2023-03-07T07:38:21.571Z,98221.95
2023-03-07T07:41:13.911Z,98223.12
2023-03-07T07:43:48.383Z,98221.05
2023-03-07T07:46:28.893Z,98220.44
2023-03-07T07:49:11.473Z,98223.34
2023-03-07T07:51:55.292Z,98217.76
2023-03-07T07:54:47.361Z,98216.65
2023-03-07T07:57:32.483Z,98212.64
2023-03-07T08:00:21.116Z,98215.20
2023-03-07T08:03:13.385Z,98218.76
2023-03-07T08:06:06.123Z,98217.45
2023-03-07T08:08:46.307Z,98220.92
2023-03-07T08:11:37.528Z,98219.02
2023-03-07T08:14:29.819Z,98218.52
2023-03-07T08:17:22.023Z,98218.33
2023-03-07T08:20:01.667Z,98218.23
2023-03-07T08:22:54.248Z,98215.98
2023-03-07T08:25:46.685Z,98209.87
2023-03-07T08:28:37.802Z,98208.81
2023-03-07T08:31:24.557Z,98212.08
2023-03-07T08:34:16.876Z,98211.38
2023-03-07T08:36:56.644Z,98205.08
2023-03-07T08:39:48.958Z,98206.64
2023-03-07T08:42:41.437Z,98202.26
2023-03-07T08:45:32.256Z,98202.88
2023-03-07T08:48:16.973Z,98202.14
2023-03-07T08:50:57.914Z,98200.36
2023-03-07T08:53:49.785Z,98195.35
2023-03-07T08:56:42.115Z,98194.67
2023-03-07T08:59:25.234Z,98192.20
2023-03-07T09:02:03.979Z,98181.87
2023-03-07T09:04:36.242Z,98182.92
2023-03-07T09:07:20.878Z,98174.04
2023-03-07T09:10:08.323Z,98176.18
2023-03-07T09:12:58.544Z,98169.50
2023-03-07T09:15:33.985Z,98164.02
2023-03-07T09:18:17.168Z,98166.06
2023-03-07T09:21:03.402Z,98161.89
2023-03-07T09:23:55.755Z,98154.18
2023-03-07T09:26:48.024Z,98149.79
2023-03-07T09:29:31.144Z,98145.92
2023-03-07T09:32:16.552Z,98145.11
2023-03-07T09:35:04.032Z,98138.90
2023-03-07T09:37:49.984Z,98132.62
2023-03-07T09:40:31.220Z,98128.45
2023-03-07T09:43:19.094Z,98129.14
2023-03-07T09:46:06.780Z,98125.05
2023-03-07T09:49:11.061Z,98125.67
2023-03-07T09:51:47.965Z,98126.95
2023-03-07T09:54:27.473Z,98124.22
2023-03-07T09:57:16.731Z,98120.69
2023-03-07T09:59:56.718Z,98120.36
2023-03-07T10:02:54.152Z,98118.19
2023-03-07T10:05:36.599Z,98118.30
2023-03-07T10:08:18.486Z,98116.77
2023-03-07T10:11:24.236Z,98115.45
2023-03-07T10:14:12.173Z,98115.58
2023-03-07T10:16:56.467Z,98108.07
2023-03-07T10:19:52.466Z,98104.59
2023-03-07T10:22:49.978Z,98102.98
2023-03-07T10:25:41.958Z,98108.08
2023-03-07T10:28:31.231Z,98106.06
2023-03-07T10:31:27.863Z,98103.08
2023-03-07T10:34:26.062Z,98099.67
2023-03-07T10:37:18.865Z,98100.76
2023-03-07T10:40:04.464Z,98096.02
2023-03-07T10:42:58.480Z,98091.97
2023-03-07T10:45:50.873Z,98098.45
2023-03-07T10:48:47.213Z,98098.73
2023-03-07T10:51:54.560Z,98093.58
2023-03-07T10:54:35.247Z,98090.29
2023-03-07T10:57:30.581Z,98089.25
2023-03-07T11:00:24.248Z,98083.85
2023-03-07T11:03:27.682Z,98077.57
2023-03-07T11:06:35.415Z,98071.27
2023-03-07T11:09:30.342Z,98073.66
2023-03-07T11:12:21.114Z,98068.07
2023-03-07T11:15:19.461Z,98065.63
2023-03-07T11:18:29.149Z,98058.67
2023-03-07T11:21:33.708Z,98057.84
2023-03-07T11:24:29.556Z,98060.64
2023-03-07T11:27:25.568Z,98060.35
2023-03-07T11:30:23.427Z,98054.35
2023-03-07T11:33:23.648Z,98047.36
2023-03-07T11:36:22.249Z,98045.21
2023-03-07T11:39:15.490Z,98042.14
2023-03-07T11:42:05.819Z,98040.13
2023-03-07T11:44:53.229Z,98039.40
2023-03-07T11:47:49.847Z,98031.92
2023-03-07T11:50:45.795Z,98027.01
2023-03-07T11:53:50.965Z,98024.14
2023-03-07T11:56:48.393Z,98021.58
2023-03-07T11:59:53.241Z,98018.36
2023-03-07T12:03:11.438Z,98017.16
2023-03-07T12:06:24.903Z,98015.43
2023-03-07T12:09:30.040Z,98016.56
2023-03-07T12:12:19.227Z,98018.86
2023-03-07T12:15:32.319Z,98023.69
2023-03-07T12:18:32.670Z,98023.83
2023-03-07T12:21:33.622Z,98014.78
2023-03-07T12:24:21.169Z,98009.30
2023-03-07T12:27:19.280Z,98007.20
2023-03-07T12:30:05.799Z,98003.08
2023-03-07T12:32:57.389Z,98004.59
2023-03-07T12:35:47.332Z,98001.00
2023-03-07T12:38:44.217Z,98000.61
2023-03-07T12:41:49.101Z,97999.92
2023-03-07T12:44:41.949Z,97996.73
2023-03-07T12:47:46.114Z,97997.96
2023-03-07T12:50:47.845Z,97994.61
2023-03-07T12:53:47.710Z,97993.29
2023-03-07T12:56:41.553Z,97989.70
2023-03-07T12:59:28.403Z,97987.59
2023-03-07T13:02:17.685Z,97987.42
2023-03-07T13:05:03.007Z,97984.10
2023-03-07T13:07:47.456Z,97988.01
2023-03-07T13:10:39.779Z,97988.67
2023-03-07T13:13:58.513Z,97985.33
2023-03-07T13:16:48.252Z,97981.76
2023-03-07T13:19:54.993Z,97977.88
2023-03-07T13:23:14.585Z,97979.05
2023-03-07T13:26:13.658Z,97975.29
2023-03-07T13:28:58.082Z,97972.12
2023-03-07T13:31:50.416Z,97970.30
2023-03-07T13:34:51.586Z,97966.19
2023-03-07T13:37:57.883Z,97964.52
2023-03-07T13:40:57.707Z,97959.66
2023-03-07T13:44:01.511Z,97956.88
2023-03-07T13:46:55.828Z,97956.38
2023-03-07T13:49:48.668Z,97952.70
2023-03-07T13:52:40.603Z,97948.91
2023-03-07T13:55:34.752Z,97946.46
2023-03-07T13:58:26.317Z,97946.88
2023-03-07T14:01:18.497Z,97940.77
2023-03-07T14:04:13.265Z,97941.71
2023-03-07T14:07:11.579Z,97935.39
2023-03-07T14:10:21.968Z,97937.36
2023-03-07T14:13:45.621Z,97933.80
2023-03-07T14:16:49.860Z,97932.79
2023-03-07T14:19:51.461Z,97930.96
2023-03-07T14:22:56.140Z,97928.80
2023-03-07T14:25:43.327Z,97927.79
2023-03-07T14:28:27.093Z,97926.18
2023-03-07T14:31:27.482Z,97929.60
2023-03-07T14:34:29.491Z,97929.60
2023-03-07T14:37:18.136Z,97924.77
2023-03-07T14:40:28.121Z,97921.33
2023-03-07T14:43:37.412Z,97916.36
2023-03-07T14:46:41.126Z,97914.77
2023-03-07T14:49:30.263Z,97916.75
2023-03-07T14:52:31.424Z,97907.36
2023-03-07T14:55:27.179Z,97905.23
2023-03-07T14:58:19.123Z,97901.70
2023-03-07T15:01:02.956Z,97894.80
2023-03-07T15:03:50.484Z,97897.80
2023-03-07T15:06:48.595Z,97893.11
2023-03-07T15:09:38.598Z,97895.34
2023-03-07T15:12:26.461Z,97894.59
2023-03-07T15:15:27.530Z,97886.81
2023-03-07T15:18:26.993Z,97879.56
2023-03-07T15:21:21.894Z,97878.48
2023-03-07T15:24:40.907Z,97875.66
2023-03-07T15:27:25.722Z,97875.44
2023-03-07T15:30:32.585Z,97874.30
2023-03-07T15:33:45.513Z,97869.27
2023-03-07T15:36:37.716Z,97873.57
2023-03-07T15:39:40.951Z,97874.35
2023-03-07T15:42:55.765Z,97864.96
2023-03-07T15:45:39.237Z,97868.44
2023-03-07T15:48:30.774Z,97863.96
2023-03-07T15:51:17.792Z,97866.52
2023-03-07T15:54:23.067Z,97862.16
2023-03-07T15:57:23.128Z,97860.21
2023-03-07T16:00:25.252Z,97861.20
2023-03-07T16:03:27.491Z,97861.89
2023-03-07T16:06:43.179Z,97858.09
2023-03-07T16:09:26.452Z,97850.49
2023-03-07T16:12:22.432Z,97850.02
2023-03-07T16:15:18.432Z,97848.67
2023-03-07T16:18:06.095Z,97847.24
2023-03-07T16:20:50.959Z,97844.96
2023-03-07T16:23:43.196Z,97842.95
2023-03-07T16:26:34.484Z,97844.74
2023-03-07T16:29:18.013Z,97843.54
2023-03-07T16:32:13.432Z,97843.02
2023-03-07T16:35:11.063Z,97841.35
2023-03-07T16:38:03.391Z,97843.98
2023-03-07T16:40:56.003Z,97853.02
2023-03-07T16:43:37.740Z,97843.20
2023-03-07T16:46:31.185Z,97851.77
2023-03-07T16:49:06.070Z,97852.66
2023-03-07T16:52:06.221Z,97854.11
2023-03-07T16:54:49.633Z,97851.91
2023-03-07T16:57:34.993Z,97853.64
2023-03-07T17:00:25.279Z,97855.23
2023-03-07T17:03:17.517Z,97850.67
2023-03-07T17:06:13.478Z,97852.34
2023-03-07T17:09:06.336Z,97856.64
2023-03-07T17:11:58.625Z,97853.05
2023-03-07T17:14:41.408Z,97858.06
2023-03-07T17:17:30.081Z,97857.23
2023-03-07T17:20:22.844Z,97861.34
2023-03-07T17:23:07.977Z,97862.58
2023-03-07T17:25:51.387Z,97863.52
2023-03-07T17:28:42.151Z,97862.48
2023-03-07T17:31:34.465Z,97862.31
2023-03-07T17:34:25.663Z,97860.04
2023-03-07T17:37:18.103Z,97855.94
2023-03-07T17:40:10.380Z,97854.16
2023-03-07T17:43:04.024Z,97852.38
2023-03-07T17:45:56.314Z,97852.80
2023-03-07T17:48:48.686Z,97854.88
2023-03-07T17:51:40.991Z,97859.42
2023-03-07T17:54:35.192Z,97854.74
2023-03-07T17:57:28.250Z,97849.81
2023-03-07T18:00:22.714Z,97847.37
2023-03-07T18:03:08.338Z,97851.29
2023-03-07T18:06:03.208Z,97851.52
2023-03-07T18:08:57.518Z,97855.83
2023-03-07T18:11:52.315Z,97853.36
2023-03-07T18:14:37.142Z,97848.17
2023-03-07T18:17:38.399Z,97848.09
2023-03-07T18:20:38.792Z,97849.77
2023-03-07T18:23:22.017Z,97846.31
2023-03-07T18:26:16.704Z,97849.79
2023-03-07T18:29:09.194Z,97847.03
2023-03-07T18:32:01.476Z,97845.55
2023-03-07T18:34:53.914Z,97844.80
2023-03-07T18:37:45.504Z,97843.55
2023-03-07T18:40:37.989Z,97844.61
2023-03-07T18:43:30.348Z,97844.64
2023-03-07T18:46:24.230Z,97839.25
2023-03-07T18:49:17.869Z,97840.92
2023-03-07T18:52:09.036Z,97844.70
2023-03-07T18:54:59.665Z,97837.61
2023-03-07T18:57:44.664Z,97835.98
2023-03-07T19:00:32.449Z,97840.19
2023-03-07T19:03:10.286Z,97840.35
2023-03-07T19:05:58.903Z,97840.58
2023-03-07T19:08:51.677Z,97838.52
2023-03-07T19:11:44.132Z,97836.07
2023-03-07T19:14:35.087Z,97835.70
2023-03-07T19:20:11.400Z,97832.30
2023-03-07T19:22:40.196Z,97833.29
2023-03-07T19:25:10.239Z,97833.23
2023-03-07T19:27:45.410Z,97829.91
2023-03-07T19:30:27.936Z,97830.59
2023-03-07T19:33:01.166Z,97828.29
2023-03-07T19:35:37.355Z,97827.38
2023-03-07T19:38:09.980Z,97827.64
2023-03-07T19:40:41.407Z,97827.13
2023-03-07T19:43:19.339Z,97832.45
2023-03-07T19:46:08.446Z,97825.23
2023-03-07T19:48:40.761Z,97826.45
2023-03-07T19:51:14.841Z,97829.42
2023-03-07T19:53:45.928Z,97831.23
2023-03-07T19:56:42.710Z,97830.98
